Time;durP1;ratioP1;P1;durP2;ratioP2;P2;SDS_P1;SDS_P2;PMS_P1;PMS_P2;Temp;Humidity;BMP_temperature;BMP_pressure;BME280_temperature;BME280_humidity;BME280_pressure;Samples;Min_cycle;Max_cycle;Signal;HPM_P1;HPM_P2
2023/02/01 00:01:11;;;;;;;2.13;1.40;;;5.10;95.70;;;8.19;53.16;98255.34;5033350;28;20042;-49
2023/02/01 00:03:38;;;;;;;2.00;1.37;;;5.10;95.30;;;8.15;53.27;98248.63;5033430;28;20041;-48
2023/02/01 00:06:06;;;;;;;2.03;1.07;;;5.10;94.60;;;8.07;53.37;98246.63;5033496;28;20416;-48
2023/02/01 00:08:34;;;;;;;1.10;1.00;;;5.00;95.10;;;8.11;53.17;98249.88;5033039;28;20042;-46
2023/02/01 00:11:09;;;;;;;1.40;1.20;;;5.00;95.40;;;8.11;53.45;98244.56;5032994;28;20049;-49
2023/02/01 00:13:40;;;;;;;3.30;0.90;;;5.00;94.80;;;8.18;53.07;98250.16;5033088;28;20417;-52
2023/02/01 00:16:20;;;;;;;2.10;1.20;;;5.10;95.20;;;8.20;53.20;98249.09;5032351;28;20091;-51
2023/02/01 00:18:51;;;;;;;1.67;1.20;;;5.10;94.70;;;8.20;53.10;98242.91;5032940;28;20413;-49
2023/02/01 00:21:20;;;;;;;1.67;1.07;;;5.10;94.50;;;8.22;52.84;98236.53;5024076;28;20041;-52
2023/02/01 00:23:48;;;;;;;2.10;1.40;;;5.10;94.60;;;8.25;52.78;98235.41;5032765;28;20523;-49
2023/02/01 00:26:22;;;;;;;2.77;1.10;;;5.10;94.30;;;8.30;52.69;98233.22;5024257;28;20053;-47
2023/02/01 00:28:50;;;;;;;1.40;1.30;;;5.10;94.60;;;8.25;52.75;98230.94;5031917;28;20041;-48
2023/02/01 00:31:17;;;;;;;1.60;1.10;;;5.10;94.50;;;8.32;52.75;98241.88;5030414;28;20049;-47
2023/02/01 00:33:48;;;;;;;3.00;1.10;;;5.10;94.50;;;8.17;53.35;98237.91;5031010;28;20054;-49
2023/02/01 00:36:16;;;;;;;1.90;1.40;;;5.10;95.10;;;8.17;53.41;98235.25;5024597;28;20049;-49
2023/02/01 00:38:44;;;;;;;2.90;1.90;;;5.10;95.50;;;8.32;52.97;98241.03;5031346;28;20425;-54
2023/02/01 00:41:17;;;;;;;1.50;1.40;;;5.10;95.30;;;8.26;53.11;98237.13;5032159;28;20417;-48
2023/02/01 00:43:46;;;;;;;3.40;1.40;;;5.10;95.70;;;8.35;53.02;98223.03;5031180;28;20052;-46
2023/02/01 00:46:15;;;;;;;2.73;1.50;;;5.20;95.10;;;8.34;52.98;98231.97;5031006;28;20068;-49
2023/02/01 00:48:43;;;;;;;1.83;1.33;;;5.20;95.10;;;8.42;52.75;98223.38;5031258;28;20041;-47
2023/02/01 00:51:15;;;;;;;3.50;1.90;;;5.20;95.30;;;8.40;52.99;98217.34;5031264;28;20251;-46
2023/02/01 00:53:43;;;;;;;3.33;2.10;;;5.20;95.40;;;8.41;52.81;98209.28;5030985;28;20503;-46
2023/02/01 00:56:11;;;;;;;2.63;1.63;;;5.10;95.40;;;8.38;52.80;98200.72;5032439;28;20056;-46
2023/02/01 00:58:41;;;;;;;5.10;2.20;;;5.10;95.50;;;8.40;52.73;98190.81;5030926;28;20501;-47
2023/02/01 01:01:23;;;;;;;3.17;1.90;;;5.10;95.40;;;8.39;52.65;98197.06;5031850;28;20041;-48
2023/02/01 01:03:55;;;;;;;2.30;1.63;;;5.10;95.00;;;8.35;52.83;98193.00;5032029;28;20041;-46
2023/02/01 01:06:29;;;;;;;2.33;1.53;;;5.00;95.50;;;8.28;52.68;98190.06;5024070;28;20053;-47
2023/02/01 01:09:00;;;;;;;3.60;1.70;;;5.00;95.70;;;8.16;53.07;98178.72;5032061;28;20052;-48
2023/02/01 01:11:31;;;;;;;5.27;1.87;;;4.90;95.90;;;8.19;52.88;98174.94;5029649;28;20045;-47
2023/02/01 01:14:00;;;;;;;3.07;2.10;;;4.90;96.40;;;8.16;52.92;98183.16;5028125;28;20056;-48
2023/02/01 01:16:30;;;;;;;2.80;1.50;;;4.80;96.70;;;8.13;53.12;98176.31;5031099;28;20058;-47
2023/02/01 01:18:59;;;;;;;3.93;1.73;;;4.80;96.90;;;8.12;53.15;98179.09;5030086;28;20054;-50
2023/02/01 01:21:27;;;;;;;1.77;1.20;;;4.80;97.10;;;8.11;53.06;98178.25;5030347;28;20050;-47
2023/02/01 01:23:55;;;;;;;2.60;1.47;;;4.90;97.10;;;8.13;53.22;98194.88;5031467;28;20531;-48
2023/02/01 01:26:27;;;;;;;2.07;1.77;;;4.90;97.10;;;8.14;53.20;98193.06;5030888;28;20048;-47
2023/02/01 01:28:56;;;;;;;3.73;2.17;;;4.90;97.20;;;8.16;53.18;98194.63;5031611;28;20046;-46
2023/02/01 01:31:24;;;;;;;2.63;1.40;;;4.90;96.70;;;8.21;52.83;98186.25;5014055;28;20516;-46
2023/02/01 01:33:56;;;;;;;2.40;1.40;;;4.90;96.80;;;8.20;53.12;98189.88;5029829;28;20049;-46
2023/02/01 01:36:26;;;;;;;3.67;1.50;;;4.90;96.50;;;8.20;52.97;98188.09;5022511;28;20041;-49
2023/02/01 01:38:54;;;;;;;2.30;1.60;;;5.00;96.70;;;8.30;52.88;98188.13;5029962;28;20417;-47
2023/02/01 01:41:28;;;;;;;3.03;1.83;;;5.00;96.20;;;8.35;52.83;98193.00;5030167;28;20044;-50
2023/02/01 01:44:04;;;;;;;3.17;2.00;;;5.00;95.80;;;8.37;52.78;98191.06;5013305;28;20422;-46
2023/02/01 01:46:35;;;;;;;2.43;1.40;;;5.00;95.90;;;8.37;52.59;98185.75;5030338;28;20539;-47
2023/02/01 01:49:20;;;;;;;2.23;1.57;;;5.00;96.40;;;8.32;52.72;98182.66;5030339;28;20104;-48
2023/02/01 01:51:57;;;;;;;2.93;1.57;;;4.90;96.20;;;8.38;52.58;98184.81;5029901;28;20037;-45
2023/02/01 01:54:43;;;;;;;2.17;1.50;;;5.00;96.10;;;8.35;52.49;98183.22;5024030;28;20057;-48
2023/02/01 01:57:39;;;;;;;3.00;1.60;;;4.90;96.00;;;8.36;52.71;98174.31;5030215;28;20075;-46
2023/02/01 02:00:12;;;;;;;1.77;1.30;;;5.00;96.80;;;8.43;52.38;98182.59;5027604;28;20057;-46
2023/02/01 02:02:47;;;;;;;4.80;1.83;;;5.00;96.20;;;8.46;52.62;98179.69;5031573;28;20402;-45
2023/02/01 02:05:17;;;;;;;3.70;1.70;;;5.10;96.00;;;8.49;52.48;98176.75;5029953;28;20052;-45
2023/02/01 02:07:48;;;;;;;2.33;1.40;;;5.10;95.90;;;8.46;52.67;98177.88;5030152;28;20037;-49
2023/02/01 02:10:17;;;;;;;3.60;2.63;;;5.10;96.20;;;8.50;52.62;98174.94;5021304;28;20049;-45
2023/02/01 02:12:47;;;;;;;2.73;1.77;;;5.10;95.80;;;8.54;52.66;98171.06;5030649;28;20049;-48
2023/02/01 02:15:16;;;;;;;2.73;1.60;;;5.20;96.10;;;8.50;52.60;98165.16;5013196;28;20068;-46
2023/02/01 02:18:29;;;;;;;2.00;1.77;;;5.20;96.40;;;8.50;53.12;98173.13;5030592;28;20069;-46
2023/02/01 02:21:35;;;;;;;5.77;2.73;;;5.20;96.40;;;8.52;52.51;98165.88;5018725;28;20064;-46
2023/02/01 02:24:49;;;;;;;3.93;2.00;;;5.10;96.00;;;8.47;52.50;98168.09;5030909;28;20111;-46
2023/02/01 02:27:54;;;;;;;3.53;2.03;;;5.10;95.80;;;8.50;52.64;98173.13;5024075;28;20108;-46
2023/02/01 02:31:16;;;;;;;5.50;2.77;;;5.10;95.90;;;8.46;52.47;98161.94;5021572;28;20498;-49
2023/02/01 02:34:28;;;;;;;4.80;3.07;;;5.00;95.50;;;8.45;52.40;98167.38;5019093;28;20057;-46
2023/02/01 02:37:03;;;;;;;4.27;2.20;;;4.90;95.40;;;8.46;52.26;98159.28;5010727;28;20056;-48
2023/02/01 02:40:06;;;;;;;4.43;2.55;;;4.90;95.70;;;8.44;52.39;98158.59;5029356;28;20045;-48
2023/02/01 02:49:29;;;;;;;2.25;1.63;;;4.90;95.20;;;8.36;52.18;98153.09;5025226;28;20052;-47
2023/02/01 02:55:28;;;;;;;3.50;1.57;;;4.90;95.50;;;8.35;52.30;98148.75;5015594;28;20072;-52
2023/02/01 03:06:24;;;;;;;1.27;0.97;;;4.90;95.90;;;8.29;52.43;98144.81;5012031;28;20056;-46
2023/02/01 03:08:56;;;;;;;1.77;1.03;;;4.90;95.70;;;8.24;52.66;98125.84;5032961;28;20061;-46
2023/02/01 03:12:55;;;;;;;2.57;1.37;;;4.90;96.50;;;8.22;52.80;98114.53;5025049;28;20076;-47
2023/02/01 03:14:15;;;;;;;2.30;1.40;;;4.90;96.60;;;8.25;52.74;98106.28;5026897;28;20440;-47
2023/02/01 03:16:53;;;;;;;1.70;1.40;;;4.90;96.10;;;8.17;52.83;98099.97;5033467;28;20041;-49
2023/02/01 03:19:50;;;;;;;4.37;2.40;;;4.90;96.30;;;8.20;52.83;98097.03;5032985;28;20045;-51
2023/02/01 03:22:26;;;;;;;2.13;1.30;;;4.80;96.70;;;8.16;52.90;98101.81;5031921;28;20045;-47
2023/02/01 03:24:59;;;;;;;1.37;1.20;;;4.80;97.20;;;8.19;53.10;98092.72;5032600;28;20049;-49
2023/02/01 03:27:49;;;;;;;1.43;1.23;;;4.90;97.40;;;8.20;52.92;98100.56;5017062;28;20041;-47
2023/02/01 03:30:30;;;;;;;2.30;1.30;;;5.00;97.00;;;8.20;52.89;98087.28;5032162;28;20060;-50
2023/02/01 03:33:00;;;;;;;1.67;1.30;;;5.00;96.60;;;8.27;52.90;98087.56;5016858;28;20049;-48
2023/02/01 03:36:09;;;;;;;1.67;1.20;;;5.00;96.50;;;8.24;53.12;98095.81;5001947;28;20051;-50
2023/02/01 03:38:52;;;;;;;2.10;1.30;;;5.00;95.20;;;8.31;52.65;98096.94;5026132;28;20524;-49
2023/02/01 03:41:42;;;;;;;1.38;1.05;;;5.00;96.20;;;8.33;52.77;98102.13;5032225;28;20125;-50
2023/02/01 03:44:37;;;;;;;2.63;1.27;;;5.00;96.40;;;8.33;52.85;98102.13;5032440;28;20501;-47
2023/02/01 03:47:20;;;;;;;2.13;1.20;;;5.00;96.20;;;8.20;53.10;98097.03;5022616;28;20046;-47
2023/02/01 03:50:02;;;;;;;2.03;1.20;;;5.00;96.40;;;8.15;53.11;98102.75;5016443;28;20500;-47
2023/02/01 03:52:53;;;;;;;2.93;1.20;;;5.00;95.30;;;8.15;53.40;98096.63;5025302;28;20045;-48
2023/02/01 03:55:25;;;;;;;1.97;1.57;;;5.10;95.60;;;8.15;53.42;98094.81;5033303;28;20053;-47
2023/02/01 03:58:11;;;;;;;2.50;1.60;;;5.10;95.30;;;8.15;53.13;98089.50;5023784;28;20274;-48
2023/02/01 04:00:39;;;;;;;2.10;1.40;;;5.20;94.60;;;8.23;53.16;98089.66;5009267;28;20524;-49
2023/02/01 04:03:07;;;;;;;3.27;1.87;;;5.10;94.70;;;8.12;53.49;98088.94;5033127;28;20048;-46
2023/02/01 04:05:35;;;;;;;1.40;1.13;;;5.10;94.50;;;8.23;53.13;98102.91;5031853;28;20064;-47
2023/02/01 04:08:05;;;;;;;1.53;1.20;;;5.10;94.70;;;8.27;53.16;98092.88;5031888;28;20053;-46
2023/02/01 04:10:33;;;;;;;2.63;2.00;;;5.10;94.30;;;8.31;52.92;98093.44;5032994;28;20033;-48
2023/02/01 04:13:00;;;;;;;2.47;1.70;;;5.10;94.70;;;8.36;52.95;98088.59;5032912;28;20089;-46
2023/02/01 04:15:28;;;;;;;2.10;1.40;;;5.20;94.50;;;8.26;53.16;98091.22;5030532;28;20045;-48
2023/02/01 04:17:55;;;;;;;3.50;1.47;;;5.20;94.20;;;8.27;53.10;98087.56;5033098;28;20045;-48
2023/02/01 04:20:23;;;;;;;2.00;1.30;;;5.20;94.20;;;8.21;53.16;98091.59;5032728;28;20052;-48
2023/02/01 04:22:51;;;;;;;2.40;1.27;;;5.20;93.70;;;8.12;53.42;98075.66;5031417;28;20053;-47
2023/02/01 04:25:19;;;;;;;2.17;1.30;;;5.20;94.20;;;8.15;53.38;98096.63;5032919;28;20055;-46
2023/02/01 04:27:46;;;;;;;1.57;1.20;;;5.20;94.10;;;8.11;53.57;98101.34;5032894;28;20030;-47
2023/02/01 04:30:14;;;;;;;1.80;1.27;;;5.10;94.40;;;8.10;53.45;98107.63;5032676;28;20041;-48
2023/02/01 04:32:42;;;;;;;3.33;1.70;;;5.20;94.50;;;8.13;53.38;98111.84;5031284;28;20053;-48
2023/02/01 04:35:11;;;;;;;1.80;1.30;;;5.20;94.00;;;8.15;53.60;98097.47;5031205;28;20045;-49
2023/02/01 04:37:38;;;;;;;2.40;1.37;;;5.20;94.20;;;8.25;53.23;98103.63;5032643;28;20041;-45
2023/02/01 04:40:07;;;;;;;3.03;1.73;;;5.30;94.00;;;8.07;53.71;98113.22;5032318;28;20064;-50
2023/02/01 04:42:34;;;;;;;2.10;1.40;;;5.20;94.10;;;8.15;53.63;98113.38;5032191;28;20042;-51
2023/02/01 04:45:02;;;;;;;2.23;1.43;;;5.20;94.10;;;8.27;53.23;98096.38;5031995;28;20049;-50
2023/02/01 04:47:30;;;;;;;3.30;1.33;;;5.30;94.90;;;8.39;53.25;98081.16;5032345;28;20488;-46
2023/02/01 04:49:58;;;;;;;2.20;1.17;;;5.30;94.40;;;8.43;53.15;98085.28;5032989;28;20394;-46
2023/02/01 04:52:25;;;;;;;3.30;1.80;;;5.40;94.60;;;8.21;53.64;98080.16;5031861;28;20033;-52
2023/02/01 04:54:54;;;;;;;2.63;1.63;;;5.30;95.00;;;8.24;53.53;98075.44;5032372;28;20044;-49
2023/02/01 04:57:23;;;;;;;2.10;1.40;;;5.20;95.10;;;8.33;53.46;98084.38;5032219;28;20054;-49
2023/02/01 04:59:51;;;;;;;2.03;1.40;;;5.20;94.60;;;8.32;53.32;98092.47;5032026;28;20053;-47
2023/02/01 05:02:18;;;;;;;1.47;1.07;;;5.30;94.90;;;8.37;53.32;98101.69;5031754;28;20045;-50
2023/02/01 05:04:46;;;;;;;4.00;1.93;;;5.30;95.00;;;8.37;53.25;98098.22;5032172;28;20053;-46
2023/02/01 05:07:14;;;;;;;2.97;1.30;;;5.30;95.00;;;8.37;53.26;98101.69;5031949;28;20250;-46
2023/02/01 05:09:41;;;;;;;2.33;1.37;;;5.20;95.10;;;8.33;53.45;98110.06;5031984;28;20523;-48
2023/02/01 05:14:56;;;;;;;1.97;1.47;;;5.20;95.40;;;8.24;53.48;98095.81;5031795;28;20037;-48
2023/02/01 05:17:23;;;;;;;3.40;1.70;;;5.20;95.30;;;8.24;53.72;98091.34;5030674;28;20049;-49
2023/02/01 05:19:51;;;;;;;2.50;1.90;;;5.20;95.40;;;8.33;53.48;98094.97;5031878;28;20508;-50
2023/02/01 05:22:19;;;;;;;2.70;1.60;;;5.20;95.30;;;8.22;53.73;98103.91;5030013;28;20046;-50
2023/02/01 05:24:46;;;;;;;5.27;1.80;;;5.10;96.10;;;8.31;53.72;98093.44;5032099;28;20068;-49
2023/02/01 05:27:14;;;;;;;1.80;1.40;;;5.20;96.60;;;8.04;54.42;98087.78;5031340;28;20053;-45
2023/02/01 05:29:41;;;;;;;1.83;1.50;;;5.10;96.30;;;8.22;53.79;98088.00;5031742;28;20045;-47
2023/02/01 05:32:10;;;;;;;2.63;1.57;;;5.10;96.40;;;8.37;53.50;98088.44;5031533;28;20406;-46
2023/02/01 05:34:49;;;;;;;1.43;1.13;;;5.20;96.20;;;8.37;53.23;98088.44;5031628;28;20053;-45
2023/02/01 05:37:17;;;;;;;2.90;2.00;;;5.30;95.20;;;8.34;53.30;98090.53;5031567;28;20489;-46
2023/02/01 05:39:44;;;;;;;2.17;1.40;;;5.20;95.50;;;8.27;53.67;98088.41;5031361;28;20037;-46
2023/02/01 05:42:12;;;;;;;2.57;1.60;;;5.20;94.90;;;8.22;53.65;98101.25;5031051;28;20052;-45
2023/02/01 05:44:39;;;;;;;2.27;1.50;;;5.20;94.80;;;8.19;53.61;98092.72;5031534;28;20060;-51
2023/02/01 05:47:07;;;;;;;1.90;1.43;;;5.20;94.70;;;7.99;53.96;98102.44;5031181;28;20401;-50
2023/02/01 05:49:35;;;;;;;2.30;1.37;;;5.10;94.90;;;8.19;53.83;98116.59;5031232;28;20448;-49
2023/02/01 05:52:03;;;;;;;2.00;1.60;;;5.20;95.60;;;7.88;54.53;98124.56;5031165;28;20493;-47
2023/02/01 05:54:31;;;;;;;3.30;1.47;;;5.10;95.60;;;7.95;54.20;98087.75;5030892;28;20501;-49
2023/02/01 05:56:58;;;;;;;2.03;1.30;;;5.10;96.10;;;7.98;54.36;98095.44;5029900;28;20045;-46
2023/02/01 05:59:27;;;;;;;4.87;1.83;;;5.10;96.30;;;8.17;53.86;98097.31;5031081;28;20068;-46
2023/02/01 06:01:54;;;;;;;2.43;1.70;;;5.10;96.10;;;8.08;54.00;98097.16;5030582;28;20056;-46
2023/02/01 06:04:22;;;;;;;2.30;1.60;;;5.10;96.20;;;8.15;54.02;98100.09;5031099;28;20056;-50
2023/02/01 06:06:50;;;;;;;2.93;1.83;;;5.20;96.30;;;7.96;54.49;98111.47;5031120;28;20049;-49
2023/02/01 06:09:18;;;;;;;2.13;1.60;;;5.10;96.40;;;7.95;54.62;98109.81;5030939;28;20052;-49
2023/02/01 06:11:45;;;;;;;2.67;1.43;;;5.10;98.00;;;8.14;54.21;98103.72;5030750;28;20048;-46
2023/02/01 06:14:13;;;;;;;4.07;1.60;;;5.10;97.60;;;8.00;54.80;98090.84;5030038;28;20050;-45
2023/02/01 06:16:40;;;;;;;6.67;3.00;;;5.10;97.70;;;7.95;55.04;98111.59;5028981;28;20068;-49
2023/02/01 06:19:08;;;;;;;4.00;2.20;;;5.10;98.60;;;8.08;54.52;98112.22;5029881;28;20041;-48
2023/02/01 06:21:36;;;;;;;6.83;2.77;;;5.10;98.60;;;8.00;54.94;98109.41;5022900;28;20049;-47
2023/02/01 06:24:04;;;;;;;5.07;3.00;;;5.10;99.20;;;7.73;55.65;98100.22;5031017;28;20500;-49
2023/02/01 06:26:32;;;;;;;4.13;2.67;;;5.00;99.90;;;8.02;55.03;98104.81;5030679;28;20087;-48
2023/02/01 06:29:00;;;;;;;4.03;2.50;;;5.10;99.90;;;8.19;54.72;98101.50;5031840;28;20057;-47
2023/02/01 06:31:28;;;;;;;4.20;2.60;;;5.20;99.60;;;8.09;54.90;98090.88;5034736;28;20524;-48
2023/02/01 06:33:55;;;;;;;9.17;3.10;;;5.20;99.80;;;8.05;54.90;98086.81;5034079;28;20052;-45
2023/02/01 06:36:23;;;;;;;6.27;3.57;;;5.20;99.60;;;8.22;54.55;98088.00;5034791;28;20049;-47
2023/02/01 06:38:50;;;;;;;6.90;3.60;;;5.20;99.50;;;7.91;55.16;98095.16;5034925;28;20041;-47
2023/02/01 06:41:20;;;;;;;5.50;3.50;;;5.10;99.20;;;7.89;55.43;98087.31;5033174;28;20053;-47
2023/02/01 06:43:47;;;;;;;5.10;3.07;;;5.10;99.70;;;7.83;55.57;98079.03;5033388;28;20132;-47
2023/02/01 06:46:15;;;;;;;7.97;3.57;;;5.10;99.30;;;7.96;54.95;98086.78;5024793;28;20065;-51
2023/02/01 06:48:43;;;;;;;4.97;3.40;;;5.10;99.60;;;7.97;54.76;98099.91;5033066;28;20045;-51
2023/02/01 06:51:23;;;;;;;7.03;3.70;;;5.10;98.80;;;8.14;54.71;98095.75;5034344;28;20041;-49
2023/02/01 06:53:51;;;;;;;6.33;3.13;;;5.20;98.60;;;8.25;54.14;98103.63;5027003;28;20069;-48
2023/02/01 06:56:19;;;;;;;3.57;2.40;;;5.20;98.30;;;7.79;54.87;98114.75;5034527;28;20048;-47
2023/02/01 06:58:48;;;;;;;8.27;3.93;;;5.10;97.30;;;7.86;54.86;98100.00;5034688;28;20485;-49
2023/02/01 07:01:17;;;;;;;6.93;2.93;;;5.10;97.70;;;7.84;55.01;98104.59;5034144;28;20042;-48
2023/02/01 07:03:51;;;;;;;8.53;4.03;;;5.10;97.20;;;8.00;54.69;98110.22;5033040;28;20041;-46
2023/02/01 07:06:19;;;;;;;;;;;5.20;97.30;;;8.03;54.30;98115.28;5034517;28;20052;-52
2023/02/01 07:08:46;;;;;;;5.83;3.40;;;5.20;96.80;;;8.08;54.33;98123.69;5034045;28;19925;-46
2023/02/01 07:11:17;;;;;;;9.30;3.17;;;5.20;96.80;;;8.09;54.26;98128.00;5034030;28;20508;-50
2023/02/01 07:13:45;;;;;;;6.93;3.20;;;5.20;96.40;;;7.92;54.53;98118.03;5031812;28;20281;-47
2023/02/01 07:16:17;;;;;;;4.23;3.23;;;5.20;96.40;;;7.76;54.78;98121.16;5032502;28;20037;-47
2023/02/01 07:18:46;;;;;;;9.40;3.60;;;5.20;95.90;;;7.93;54.66;98117.06;5034186;28;20042;-47
2023/02/01 07:21:13;;;;;;;10.43;4.33;;;5.20;95.70;;;7.84;55.05;98136.41;5033781;28;20049;-50
2023/02/01 07:23:41;;;;;;;7.13;3.67;;;5.20;95.90;;;8.05;54.37;98139.84;5033989;28;20413;-47
2023/02/01 07:26:12;;;;;;;7.00;3.57;;;5.20;95.90;;;7.88;54.59;98170.47;5032896;28;20057;-46
2023/02/01 07:28:41;;;;;;;4.13;2.80;;;5.20;96.00;;;7.83;54.89;98129.41;5025679;28;20049;-48
2023/02/01 07:31:13;;;;;;;8.70;4.03;;;5.20;96.60;;;7.94;54.50;98142.59;5033640;28;20045;-48
2023/02/01 07:33:41;;;;;;;7.00;3.70;;;5.20;96.00;;;8.13;54.14;98135.69;5026054;28;20041;-48
2023/02/01 07:36:13;;;;;;;5.70;3.13;;;5.20;96.10;;;8.03;54.42;98138.31;5033790;28;20038;-47
2023/02/01 07:38:41;;;;;;;4.93;3.70;;;5.20;95.70;;;7.84;54.68;98137.25;5024819;28;20424;-48
2023/02/01 07:41:10;;;;;;;7.93;4.10;;;5.10;95.90;;;7.67;55.29;98135.19;5033058;28;20045;-47
2023/02/01 07:43:38;;;;;;;9.67;4.20;;;5.10;96.30;;;7.60;55.74;98150.78;5032041;28;20064;-49
2023/02/01 07:46:06;;;;;;;7.23;3.27;;;5.10;96.40;;;7.67;55.35;98151.94;5033105;28;20057;-46
2023/02/01 07:48:34;;;;;;;6.00;4.37;;;5.20;97.50;;;7.40;57.09;98155.09;5033256;28;20799;-47
2023/02/01 07:51:09;;;;;;;6.80;4.43;;;5.10;98.60;;;7.73;55.57;98150.56;5032013;28;20049;-47
2023/02/01 07:53:37;;;;;;;10.80;3.63;;;5.20;98.80;;;7.77;55.55;98151.97;5031952;28;20041;-47
2023/02/01 07:56:22;;;;;;;10.57;4.00;;;5.10;98.00;;;7.81;55.33;98142.81;5032249;28;20052;-47
2023/02/01 07:58:52;;;;;;;9.10;3.80;;;5.10;98.90;;;7.74;55.78;98144.31;5026616;28;20057;-52
2023/02/01 08:01:24;;;;;;;5.77;3.10;;;5.10;98.50;;;7.89;55.26;98142.16;5033036;28;20049;-46
2023/02/01 08:03:55;;;;;;;6.50;3.50;;;5.10;98.30;;;7.94;54.77;98134.63;5033495;28;20053;-48
2023/02/01 08:06:24;;;;;;;10.27;3.30;;;5.20;97.00;;;7.99;54.43;98144.88;5031913;28;20500;-46
2023/02/01 08:08:53;;;;;;;10.83;3.67;;;5.20;95.90;;;7.90;54.55;98143.81;5033024;28;20037;-46
2023/02/01 08:11:23;;;;;;;5.77;3.60;;;5.20;94.90;;;8.00;54.28;98139.41;5032749;28;20045;-48
2023/02/01 08:13:51;;;;;;;10.07;3.03;;;5.20;96.80;;;8.00;54.38;98125.31;5032938;28;20049;-49
2023/02/01 08:16:20;;;;;;;11.50;3.70;;;5.20;95.30;;;8.08;54.31;98125.47;5032839;28;20042;-49
2023/02/01 08:18:48;;;;;;;9.60;3.50;;;5.30;95.50;;;7.95;54.37;98122.22;5032441;28;20057;-47
2023/02/01 08:21:23;;;;;;;5.80;3.20;;;5.20;94.60;;;8.11;54.19;98129.69;5031682;28;20045;-46
2023/02/01 08:23:51;;;;;;;5.93;3.63;;;5.30;95.10;;;8.04;54.04;98122.25;5024751;28;20293;-46
2023/02/01 08:26:25;;;;;;;6.53;3.70;;;5.30;94.60;;;8.11;53.63;98133.19;5031654;28;20046;-49
2023/02/01 08:28:57;;;;;;;;;;;5.30;93.90;;;8.16;53.63;98133.63;5031819;28;20417;-46
2023/02/01 08:31:28;;;;;;;5.90;2.53;;;5.30;93.20;;;8.07;53.43;98129.94;5032318;28;20125;-44
2023/02/01 08:33:59;;;;;;;6.40;4.13;;;5.30;92.30;;;8.03;53.36;98141.78;5032608;28;20049;-46
2023/02/01 08:36:29;;;;;;;6.27;3.53;;;5.30;91.90;;;7.98;54.01;98154.59;5032434;28;20444;-51
2023/02/01 08:38:57;;;;;;;8.63;4.23;;;5.40;92.00;;;7.80;54.11;98151.72;5032573;28;20037;-46
2023/02/01 08:41:28;;;;;;;11.70;3.87;;;5.40;90.60;;;8.05;53.34;98163.72;5030306;28;20048;-48
2023/02/01 08:43:57;;;;;;;5.03;3.40;;;5.50;89.50;;;8.18;53.44;98165.28;5030999;28;20045;-50
2023/02/01 08:46:24;;;;;;;8.27;3.20;;;5.50;89.80;;;8.19;53.09;98183.72;5032270;28;20045;-52
2023/02/01 08:48:52;;;;;;;10.47;2.90;;;5.50;89.70;;;8.05;53.62;98181.44;5031995;28;20052;-49
2023/02/01 08:51:22;;;;;;;12.00;3.10;;;5.50;90.40;;;7.64;54.76;98186.66;5022061;28;20046;-48
2023/02/01 08:53:51;;;;;;;6.60;2.70;;;5.40;90.20;;;7.77;54.50;98194.38;5031829;28;20417;-49
2023/02/01 08:56:19;;;;;;;7.33;5.00;;;5.40;91.00;;;7.94;54.30;98198.25;5031329;28;20050;-48
2023/02/01 08:58:46;;;;;;;6.17;2.40;;;5.40;91.70;;;7.95;53.74;98191.13;5032182;28;20045;-48
2023/02/01 09:01:16;;;;;;;6.63;2.23;;;5.40;90.50;;;7.70;55.36;98195.91;5031951;28;20049;-45
2023/02/01 09:03:44;;;;;;;6.67;3.47;;;5.40;92.00;;;7.78;55.01;98187.31;5031157;28;20050;-46
2023/02/01 09:06:14;;;;;;;7.20;2.97;;;5.40;93.20;;;7.63;56.17;98190.25;5032120;28;20041;-46
2023/02/01 09:08:43;;;;;;;6.57;4.10;;;5.30;95.70;;;7.49;56.93;98195.88;5031812;28;20030;-51
2023/02/01 09:11:19;;;;;;;6.30;3.07;;;5.20;98.00;;;7.71;55.90;98194.09;5031824;28;20045;-51
2023/02/01 09:13:47;;;;;;;9.70;3.00;;;5.20;97.70;;;7.81;55.71;98189.69;5031877;28;20033;-47
2023/02/01 09:16:15;;;;;;;8.73;3.40;;;5.20;98.30;;;7.61;56.20;98189.56;5031803;28;20057;-45
2023/02/01 09:18:43;;;;;;;6.53;3.20;;;5.10;97.60;;;7.53;56.17;98188.53;5030951;28;20041;-47
2023/02/01 09:21:29;;;;;;;6.07;3.27;;;5.10;96.60;;;7.78;55.67;98179.34;5031537;28;20052;-46
2023/02/01 09:23:56;;;;;;;10.63;3.17;;;5.20;95.70;;;7.91;55.11;98192.38;5031629;28;20052;-47
2023/02/01 09:26:25;;;;;;;12.77;3.03;;;5.30;95.70;;;7.52;55.53;98189.47;5031864;28;20527;-48
2023/02/01 09:29:00;;;;;;;10.23;3.77;;;5.30;93.70;;;7.67;54.99;98193.50;5031554;28;20044;-48
2023/02/01 09:31:27;;;;;;;5.40;3.73;;;5.30;92.70;;;7.61;54.77;98176.31;5031395;28;20042;-48
2023/02/01 09:33:55;;;;;;;8.37;2.90;;;5.30;92.10;;;7.97;54.03;98168.84;5031182;28;20049;-47
2023/02/01 09:36:23;;;;;;;7.20;3.37;;;5.40;91.70;;;8.03;53.72;98184.22;5031408;28;20045;-45
2023/02/01 09:38:52;;;;;;;10.10;2.83;;;5.50;91.20;;;8.14;53.49;98185.09;5031435;28;20042;-47
2023/02/01 09:41:39;;;;;;;11.90;2.97;;;5.50;89.30;;;7.95;53.51;98178.75;5030192;28;20470;-48
2023/02/01 09:44:47;;;;;;;7.77;3.20;;;5.60;88.80;;;7.89;53.60;98190.72;5025183;28;20508;-45
2023/02/01 09:47:19;;;;;;;8.43;2.57;;;5.50;88.20;;;7.58;54.05;98191.63;5027167;28;20056;-48
2023/02/01 09:50:20;;;;;;;6.70;2.70;;;5.40;87.60;;;7.98;53.35;98173.16;5030088;28;20037;-47
2023/02/01 09:53:21;;;;;;;7.93;3.00;;;5.50;88.10;;;8.18;52.82;98187.38;5037335;28;20509;-47
2023/02/01 09:55:53;;;;;;;9.83;2.33;;;5.60;86.90;;;7.86;53.05;98195.44;5022222;28;20037;-48
2023/02/01 09:58:34;;;;;;;11.37;2.90;;;5.50;85.80;;;8.03;52.97;98192.19;5030068;28;20053;-47
2023/02/01 10:01:05;;;;;;;7.00;2.03;;;5.50;86.90;;;8.08;52.65;98194.44;5024128;28;20284;-47
2023/02/01 10:03:36;;;;;;;10.07;2.80;;;5.50;85.90;;;8.13;52.30;98194.88;5029732;28;20060;-48
2023/02/01 10:06:49;;;;;;;6.97;2.67;;;5.50;84.40;;;8.16;52.00;98202.59;5030151;28;20041;-46
2023/02/01 10:09:55;;;;;;;12.33;3.73;;;5.60;85.20;;;8.11;51.91;98202.13;5030074;28;20052;-48
2023/02/01 10:12:55;;;;;;;7.43;2.53;;;5.50;84.20;;;7.99;52.01;98219.94;5012362;28;20049;-46
2023/02/01 10:15:39;;;;;;;5.87;2.30;;;5.50;84.00;;;7.67;52.75;98231.44;5027944;28;20046;-48
2023/02/01 10:18:13;;;;;;;;;;;5.40;83.50;;;7.67;52.94;98243.84;5030150;28;20044;-49
2023/02/01 10:21:11;;;;;;;15.13;3.75;;;5.50;84.00;;;7.89;52.31;98237.59;5013134;28;19959;-47
2023/02/01 10:24:19;;;;;;;5.20;1.93;;;5.60;83.50;;;7.89;52.71;98213.75;5030842;28;20421;-49
2023/02/01 10:27:21;;;;;;;8.67;2.33;;;5.70;82.80;;;7.86;52.60;98243.97;5029660;28;20505;-48
2023/02/01 10:29:59;;;;;;;10.50;3.90;;;5.70;82.70;;;7.53;53.28;98254.78;5042830;28;20057;-47
2023/02/01 10:32:34;;;;;;;9.57;2.50;;;5.60;82.50;;;8.11;52.12;98233.13;5029366;28;20501;-45
2023/02/01 10:35:17;;;;;;;7.07;2.90;;;5.70;82.60;;;8.07;51.86;98251.94;5013315;28;20049;-46
2023/02/01 10:37:46;;;;;;;6.20;2.33;;;5.70;82.20;;;8.11;51.78;98225.16;5029184;28;20045;-45
2023/02/01 10:40:24;;;;;;;8.77;2.77;;;5.70;81.30;;;8.37;51.29;98238.81;5030692;28;20056;-46
2023/02/01 10:42:59;;;;;;;9.10;3.23;;;5.80;81.00;;;8.39;51.16;98231.56;5021045;28;20046;-44
2023/02/01 10:45:33;;;;;;;5.70;3.03;;;5.90;81.30;;;8.44;50.71;98248.81;5034132;28;20049;-46
2023/02/01 10:48:03;;;;;;;9.07;3.03;;;5.90;80.50;;;8.33;51.16;98254.16;5029399;28;20049;-47
2023/02/01 10:50:58;;;;;;;6.47;2.50;;;5.90;80.00;;;8.12;51.01;98263.97;5030271;28;20042;-45
2023/02/01 10:54:08;;;;;;;;;;;5.80;79.40;;;8.12;51.02;98253.34;5029837;28;20041;-46
2023/02/01 10:56:38;;;;;;;10.50;3.13;;;5.80;79.60;;;8.32;50.97;98241.03;5030380;28;19925;-44
2023/02/01 10:59:15;;;;;;;12.10;2.70;;;5.80;80.20;;;8.21;51.32;98256.06;5029867;28;20050;-45
2023/02/01 11:01:47;;;;;;;7.90;2.53;;;5.80;80.10;;;8.53;50.63;98241.00;5028305;28;20050;-47
2023/02/01 11:04:19;;;;;;;5.37;2.10;;;5.90;80.10;;;8.56;50.59;98235.44;5029386;28;20053;-48
2023/02/01 11:07:08;;;;;;;7.87;3.03;;;5.90;79.50;;;8.65;50.28;98235.47;5029235;28;20041;-46
2023/02/01 11:09:40;;;;;;;8.70;2.80;;;6.00;78.40;;;8.73;49.88;98239.28;5029269;28;20045;-50
2023/02/01 11:12:32;;;;;;;8.30;2.33;;;6.00;78.50;;;8.66;49.60;98229.19;5029086;28;20091;-46
2023/02/01 11:15:18;;;;;;;8.93;2.13;;;6.10;77.00;;;8.47;50.09;98229.97;5024217;28;20064;-50
2023/02/01 11:17:51;;;;;;;10.13;3.87;;;6.00;77.80;;;8.45;50.32;98239.88;5031929;28;20120;-50
2023/02/01 11:20:32;;;;;;;7.67;2.77;;;6.00;77.30;;;8.42;49.71;98228.69;5032725;28;20056;-45
2023/02/01 11:23:01;;;;;;;9.60;3.57;;;6.00;77.00;;;8.62;49.85;98226.94;5025838;28;20049;-48